Monday, January 21, 2019, 11:08 PM GMT
Back to Local

CYMX, Montreal / Mirabel

Location: , , Canada Lat: 45.683
Local Time: 11:08 PM GMT (23:08 GMT) Lon: -74.033
Time Zone: GMT Elev: 269 ft

Show me the last for .
Show Decoded

2019-01-21 22:00 METAR CYMX 212200Z 27007KT 240V320 25SM BKN130 M17/M25 A3012 RMK AC7 SLP209 =
2019-01-21 21:00 METAR CYMX 212100Z 28008KT 250V310 45SM DRSN BKN110 BKN170 M17/M25 A3008 RMK
                 AC6AC1 SLP195 =
2019-01-21 20:00 METAR CYMX 212000Z 26009G16KT 45SM DRSN BKN096 M18/M25 A3004 RMK AC7 SLP182 =
2019-01-21 19:22 METAR CYMX 211922Z 27007KT 230V310 25SM DRSN OVC073 M18/M25 A3001 RMK AC8 SLP173
                 =
2019-01-21 19:00 METAR CYMX 211900Z 26009G16KT 20SM BKN068 OVC078 M18/M26 A3000 RMK AC5AC3 INTMT
                 -SN SLP170 =
2019-01-21 18:00 METAR CYMX 211800Z 30007KT 240V330 10SM -SN OVC045 M18/M25 A2998 RMK SC8 SLP163
                 =
2019-01-21 17:00 METAR CYMX 211700Z 28005KT 240V310 10SM -SN OVC046 M19/M25 A2997 RMK SC8 SLP161
                 =
2019-01-21 16:00 METAR CYMX 211600Z 27006KT 240V310 6SM -SN SCT042 OVC050 M20/M26 A2997 RMK
                 SC4SC4 -SN INTMT SLP159 =
2019-01-21 15:00 METAR CYMX 211500Z 29007KT 260V320 5SM -SN OVC039 M20/M26 A2995 RMK SC8 SLP153 =
2019-01-21 14:00 METAR CYMX 211400Z 29006G17KT 250V340 3SM -SN DRSN OVC035 M21/M26 A2992 RMK
                 SN3SC5 SLP143 =
2019-01-21 13:00 METAR CYMX 211300Z 29007KT 240V330 4SM -SN SCT036 BKN045 OVC150 M21/M25 A2989
                 RMK SC3SC3AC2 SLP133 =
2019-01-21 12:00 METAR CYMX 211200Z 28006KT 240V310 10SM -SN BKN057 OVC064 M21/M26 A2987 RMK
                 SC5SC3 SLP125 =
2019-01-21 11:00 METAR CYMX 211100Z 24009G16KT 10SM -SN DRSN BKN051 OVC100 M22/M25 A2986 RMK
                 SC6AC2 SLP123 =
2019-01-21 10:00 METAR CYMX 211000Z 25005KT 210V290 5SM -SN DRSN BKN057 OVC100 M22/M25 A2987 RMK
                 SC6AC2 /S01/ SLP124 =
2019-01-21 09:00 METAR CYMX 210900Z 27004KT 230V310 5SM -SN DRSN BKN050 OVC100 M21/M25 A2986 RMK
                 SC6AC2 SLP123 =
2019-01-21 08:00 METAR CYMX 210800Z 27004KT 250V330 5SM -SN DRSN BKN030 OVC100 M22/M26 A2985 RMK
                 SC5AC3 SLP118 =
2019-01-21 07:00 METAR CYMX 210700Z 27004KT 230V330 15SM -SN DRSN BKN060 OVC100 M21/M25 A2983 RMK
                 SC6AC2 SLP113 =
2019-01-21 06:00 METAR CYMX 210600Z 35009KT 4SM -SN DRSN OVC028 M20/M24 A2982 RMK SC8 /S02/
                 SLP108 =
2019-01-21 05:00 METAR CYMX 210500Z 34008KT 4SM -SN DRSN OVC030 M19/M23 A2981 RMK SC8 SLP105 =
2019-01-21 04:00 METAR CYMX 210400Z 34007KT 8SM -SN DRSN OVC055 M19/M23 A2980 RMK SC8 /S01/
                 SLP101 =
2019-01-21 03:00 METAR CYMX 210300Z 33007KT 12SM -SN DRSN BKN065 BKN110 M19/M24 A2981 RMK SC5AC2
                 SLP105 =
2019-01-21 02:00 METAR CYMX 210200Z 33013KT 12SM -SN DRSN BKN060 BKN100 M19/M24 A2980 RMK SC5AC2
                 SLP103 =
2019-01-21 01:00 METAR CYMX 210100Z 35008KT 10SM -SN DRSN BKN055 M18/M22 A2980 RMK SC7 SLP102 =
2019-01-21 00:00 METAR CYMX 210000Z 34007KT 10SM -SN OVC055 M17/M22 A2978 RMK SC8 SLP096 =
2019-01-20 23:39 METAR CYMX 202339Z 34004KT 10SM -SN OVC054 M17/M22 A2978 RMK SC8 SLP095 =

Support USWX by starting your Amazon purchase here.